Batatais, Brazil
Current Conditions -  °F | °C
As of 6:00 AM on Sunday 26 Oct 2014 (Local Time) from SBRP Reporting Station
Few Clouds Few Clouds  
Wind Chill: 68°   Ceiling: Unl
Heat Index: 68°   Visibility: 4mi
Dew Point: 66°   Wind: 5mph
Humidity: 94%   Direction: 130°SE
Pressure: 29.94"   Gusts: NA
Location:  20.89°S, 47.58°W
Report Text: SBRP 260800Z 13004KT 7000 FEW035 20/19 Q1014
Loading
Personal Weather Stations






























Interactive Weather Map
Tropical Storm Tracking
New forecast layout! Learn more

10-Day Weather Forecast

Advertisements
Track Severe Weather on mobile